createdAt,value
2019-06-08T00:00:35.356Z,15.34
2019-06-08T00:02:38.170Z,15.35
2019-06-08T00:04:40.980Z,15.26
2019-06-08T00:06:43.791Z,15.16
2019-06-08T00:08:46.648Z,15.18
2019-06-08T00:10:49.380Z,15.25
2019-06-08T00:12:52.188Z,15.26
2019-06-08T00:14:55.007Z,15.14
2019-06-08T00:16:57.737Z,15.09
2019-06-08T00:19:00.602Z,15.15
2019-06-08T00:21:03.421Z,15.14
2019-06-08T00:23:06.241Z,15.11
2019-06-08T00:25:08.979Z,15.11
2019-06-08T00:27:11.720Z,15.08
2019-06-08T00:29:14.543Z,15.09
2019-06-08T00:31:20.082Z,15.1
2019-06-08T00:33:24.811Z,14.98
2019-06-08T00:35:27.678Z,14.92
2019-06-08T00:37:30.499Z,14.93
2019-06-08T00:39:33.346Z,14.98
2019-06-08T00:41:36.083Z,15.05
2019-06-08T00:43:38.913Z,14.92
2019-06-08T00:45:41.712Z,14.91
2019-06-08T00:47:47.796Z,14.81
2019-06-08T00:49:51.108Z,14.75
2019-06-08T00:51:53.887Z,14.82
2019-06-08T00:53:56.727Z,14.85
2019-06-08T00:55:59.494Z,14.83
2019-06-08T00:58:02.210Z,14.8
2019-06-08T01:00:10.138Z,14.85
2019-06-08T01:02:14.382Z,14.85
2019-06-08T01:04:18.382Z,14.86
2019-06-08T01:06:22.763Z,14.73
2019-06-08T01:08:26.390Z,14.76
2019-06-08T01:10:30.255Z,14.73
2019-06-08T01:12:33.078Z,14.78
2019-06-08T01:14:35.950Z,14.75
2019-06-08T01:16:38.773Z,14.59
2019-06-08T01:18:41.590Z,14.66
2019-06-08T01:20:44.431Z,14.69
2019-06-08T01:22:47.249Z,14.62
2019-06-08T01:24:50.058Z,14.62
2019-06-08T01:26:52.974Z,14.57
2019-06-08T01:28:55.747Z,14.57
2019-06-08T01:30:58.527Z,14.53
2019-06-08T01:33:01.327Z,14.56
2019-06-08T01:35:04.222Z,14.5
2019-06-08T01:37:07.079Z,14.59
2019-06-08T01:39:09.832Z,14.62
2019-06-08T01:41:12.684Z,14.58
2019-06-08T01:43:15.408Z,14.59
2019-06-08T01:45:18.259Z,14.57
2019-06-08T01:47:22.093Z,14.53
2019-06-08T01:49:26.865Z,14.47
2019-06-08T01:51:31.095Z,14.46
2019-06-08T01:53:35.061Z,14.46
2019-06-08T01:55:37.922Z,14.47
2019-06-08T01:57:40.722Z,14.5
2019-06-08T01:59:43.437Z,14.41
2019-06-08T02:01:46.242Z,14.45
2019-06-08T02:03:49.016Z,14.46
2019-06-08T02:05:51.848Z,14.35
2019-06-08T02:07:54.782Z,14.33
2019-06-08T02:09:57.590Z,14.36
2019-06-08T02:12:00.514Z,14.31
2019-06-08T02:14:03.332Z,14.23
2019-06-08T02:16:06.151Z,14.31
2019-06-08T02:18:08.975Z,14.33
2019-06-08T02:20:11.799Z,14.16
2019-06-08T02:22:14.721Z,14.19
2019-06-08T02:24:17.589Z,14.24
2019-06-08T02:26:20.500Z,14.21
2019-06-08T02:28:23.322Z,14.06
2019-06-08T02:30:28.142Z,14.04
2019-06-08T02:32:38.426Z,14.15
2019-06-08T02:34:43.134Z,14.13
2019-06-08T02:36:46.006Z,14.1
2019-06-08T02:38:48.805Z,14.13
2019-06-08T02:40:51.532Z,14.16
2019-06-08T02:42:54.356Z,14.17
2019-06-08T02:44:57.165Z,14.07
2019-06-08T02:46:59.984Z,14.11
2019-06-08T02:49:04.650Z,14.16
2019-06-08T02:51:07.882Z,14.09
2019-06-08T02:53:10.796Z,14.1
2019-06-08T02:55:13.657Z,13.98
2019-06-08T02:57:16.526Z,14.05
2019-06-08T02:59:19.284Z,14.02
2019-06-08T03:01:22.032Z,13.98
2019-06-08T03:03:24.892Z,13.95
2019-06-08T03:05:27.677Z,14.01
2019-06-08T03:07:32.305Z,13.98
2019-06-08T03:09:38.508Z,14.03
2019-06-08T03:11:43.435Z,14.01
2019-06-08T03:13:46.226Z,14.04
2019-06-08T03:15:48.967Z,13.95
2019-06-08T03:17:51.690Z,13.93
2019-06-08T03:19:54.517Z,13.91
2019-06-08T03:21:57.357Z,13.9
2019-06-08T03:24:00.250Z,13.85
2019-06-08T03:26:03.074Z,13.77
2019-06-08T03:28:05.937Z,13.85
2019-06-08T03:30:16.875Z,13.82
2019-06-08T03:32:22.607Z,13.8
2019-06-08T03:34:25.443Z,13.87
2019-06-08T03:36:28.310Z,13.85
2019-06-08T03:38:31.172Z,13.85
2019-06-08T03:40:33.995Z,13.84
2019-06-08T03:42:40.536Z,13.93
2019-06-08T03:44:44.885Z,13.85
2019-06-08T03:46:47.868Z,13.92
2019-06-08T03:48:50.678Z,13.89
2019-06-08T03:50:53.416Z,13.9
2019-06-08T03:52:56.177Z,13.98
2019-06-08T03:54:59.069Z,13.91
2019-06-08T03:57:01.847Z,13.84
2019-06-08T03:59:04.752Z,13.91
2019-06-08T04:01:07.527Z,13.92
2019-06-08T04:03:10.316Z,13.94
2019-06-08T04:05:13.168Z,14.03
2019-06-08T04:07:15.979Z,13.89
2019-06-08T04:09:18.790Z,13.91
2019-06-08T04:11:21.601Z,13.95
2019-06-08T04:13:24.474Z,13.96
2019-06-08T04:15:27.442Z,13.93
2019-06-08T04:17:30.286Z,13.9
2019-06-08T04:19:33.112Z,13.9
2019-06-08T04:21:35.865Z,13.9
2019-06-08T04:23:42.221Z,13.8
2019-06-08T04:25:50.568Z,13.74
2019-06-08T04:27:53.496Z,13.76
2019-06-08T04:29:56.417Z,13.69
2019-06-08T04:31:59.278Z,13.64
2019-06-08T04:34:02.119Z,13.73
2019-06-08T04:36:04.896Z,13.75
2019-06-08T04:38:07.704Z,13.81
2019-06-08T04:40:10.593Z,13.8
2019-06-08T04:42:13.410Z,13.74
2019-06-08T04:44:16.247Z,13.65
2019-06-08T04:46:19.088Z,13.75
2019-06-08T04:48:22.004Z,13.79
2019-06-08T04:50:24.885Z,13.78
2019-06-08T04:52:27.681Z,13.74
2019-06-08T04:54:30.476Z,13.81
2019-06-08T04:56:33.264Z,13.83
2019-06-08T04:58:36.062Z,13.82
2019-06-08T05:00:39.519Z,13.82
2019-06-08T05:02:50.543Z,13.81
2019-06-08T05:04:54.270Z,13.85
2019-06-08T05:06:57.068Z,13.83
2019-06-08T05:08:59.926Z,13.78
2019-06-08T05:11:02.812Z,13.79
2019-06-08T05:13:05.670Z,13.8
2019-06-08T05:15:08.540Z,13.79
2019-06-08T05:17:11.364Z,13.68
2019-06-08T05:19:14.194Z,13.65
2019-06-08T05:21:17.130Z,13.63
2019-06-08T05:23:19.933Z,13.65
2019-06-08T05:25:22.741Z,13.61
2019-06-08T05:27:25.504Z,13.64
2019-06-08T05:29:28.257Z,13.61
2019-06-08T05:31:31.183Z,13.65
2019-06-08T05:33:34.316Z,13.55
2019-06-08T05:35:37.348Z,13.59
2019-06-08T05:37:43.632Z,13.57
2019-06-08T05:39:47.886Z,13.54
2019-06-08T05:41:52.243Z,13.57
2019-06-08T05:43:54.977Z,13.59
2019-06-08T05:45:57.779Z,13.58
2019-06-08T05:48:00.551Z,13.61
2019-06-08T05:50:03.364Z,13.61
2019-06-08T05:52:06.231Z,13.59
2019-06-08T05:54:09.025Z,13.6
2019-06-08T05:56:11.912Z,13.66
2019-06-08T05:58:14.689Z,13.67
2019-06-08T06:00:17.569Z,13.72
2019-06-08T06:02:20.449Z,13.76
2019-06-08T06:04:23.317Z,13.7
2019-06-08T06:06:26.102Z,13.72
2019-06-08T06:08:28.923Z,13.77
2019-06-08T06:10:31.676Z,13.78
2019-06-08T06:12:34.485Z,13.76
2019-06-08T06:14:37.296Z,13.73
2019-06-08T06:16:40.861Z,13.81
2019-06-08T06:18:44.766Z,13.86
2019-06-08T06:20:47.717Z,13.86
2019-06-08T06:22:52.497Z,13.88
2019-06-08T06:24:55.438Z,13.88
2019-06-08T06:26:58.313Z,14
2019-06-08T06:29:01.108Z,14.05
2019-06-08T06:31:04.068Z,14.06
2019-06-08T06:33:06.884Z,14.11
2019-06-08T06:35:09.792Z,14.12
2019-06-08T06:37:12.575Z,14.11
2019-06-08T06:39:15.403Z,14.21
2019-06-08T06:41:18.253Z,14.21
2019-06-08T06:43:21.042Z,14.19
2019-06-08T06:45:23.770Z,14.29
2019-06-08T06:47:26.569Z,14.42
2019-06-08T06:49:29.319Z,14.47
2019-06-08T06:51:33.978Z,14.48
2019-06-08T06:53:36.819Z,14.51
2019-06-08T06:55:39.710Z,14.63
2019-06-08T06:57:43.470Z,14.64
2019-06-08T06:59:47.653Z,14.71
2019-06-08T07:01:55.521Z,14.66
2019-06-08T07:04:00.354Z,14.7
2019-06-08T07:06:03.169Z,14.68
2019-06-08T07:08:05.938Z,14.61
2019-06-08T07:10:08.778Z,14.67
2019-06-08T07:12:11.698Z,14.87
2019-06-08T07:14:14.431Z,15.08
2019-06-08T07:16:19.025Z,15.21
2019-06-08T07:18:22.139Z,15.23
2019-06-08T07:20:24.903Z,15.39
2019-06-08T07:22:27.698Z,15.6
2019-06-08T07:24:30.447Z,15.76
2019-06-08T07:26:33.310Z,15.84
2019-06-08T07:28:36.057Z,15.64
2019-06-08T07:30:38.828Z,15.72
2019-06-08T07:32:41.682Z,15.82
2019-06-08T07:34:44.442Z,15.57
2019-06-08T07:36:48.264Z,15.45
2019-06-08T07:38:53.600Z,15.65
2019-06-08T07:40:59.586Z,15.68
2019-06-08T07:43:04.527Z,15.66
2019-06-08T07:45:07.357Z,15.66
2019-06-08T07:47:10.203Z,15.58
2019-06-08T07:49:13.061Z,15.61
2019-06-08T07:51:15.896Z,15.58
2019-06-08T07:53:18.793Z,15.72
2019-06-08T07:55:22.934Z,15.69
2019-06-08T07:57:25.726Z,15.64
2019-06-08T07:59:28.628Z,15.69
2019-06-08T08:01:36.017Z,15.68
2019-06-08T08:03:39.433Z,15.94
2019-06-08T08:05:42.267Z,16.02
2019-06-08T08:07:45.114Z,16.06
2019-06-08T08:09:48.617Z,15.92
2019-06-08T08:11:52.944Z,15.87
2019-06-08T08:13:57.280Z,16.06
2019-06-08T08:16:01.648Z,16.21
2019-06-08T08:18:04.454Z,16.24
2019-06-08T08:20:07.265Z,15.92
2019-06-08T08:22:21.916Z,16.02
2019-06-08T08:24:31.864Z,16.38
2019-06-08T08:26:34.810Z,16.64
2019-06-08T08:28:37.748Z,16.61
2019-06-08T08:30:40.634Z,16.52
2019-06-08T08:32:43.582Z,16.44
2019-06-08T08:34:47.607Z,16.36
2019-06-08T08:36:53.638Z,16.37
2019-06-08T08:38:59.024Z,16.36
2019-06-08T08:41:08.079Z,16.36
2019-06-08T08:43:13.729Z,16.07
2019-06-08T08:45:18.258Z,16.21
2019-06-08T08:47:21.173Z,16.47
2019-06-08T08:49:24.020Z,16.58
2019-06-08T08:51:27.897Z,16.48
2019-06-08T08:53:30.830Z,16.47
2019-06-08T08:55:33.593Z,16.52
2019-06-08T08:57:38.526Z,16.67
2019-06-08T08:59:44.385Z,16.59
2019-06-08T09:01:51.241Z,16.56
2019-06-08T09:03:59.683Z,16.47
2019-06-08T09:06:08.626Z,16.35
2019-06-08T09:08:11.551Z,16.49
2019-06-08T09:10:14.319Z,16.42
2019-06-08T09:12:18.216Z,16.35
2019-06-08T09:14:21.270Z,16.36
2019-06-08T09:16:24.026Z,16.37
2019-06-08T09:18:28.650Z,16.36
2019-06-08T09:20:31.514Z,16.46
2019-06-08T09:22:47.125Z,16.46
2019-06-08T09:25:15.192Z,16.48
2019-06-08T09:27:20.841Z,16.39
2019-06-08T09:29:23.689Z,16.54
2019-06-08T09:31:28.046Z,16.63
2019-06-08T09:33:33.690Z,16.73
2019-06-08T09:35:37.844Z,16.95
2019-06-08T09:37:40.830Z,16.91
2019-06-08T09:39:43.640Z,16.81
2019-06-08T09:41:47.888Z,16.82
2019-06-08T09:43:50.883Z,16.89
2019-06-08T09:45:58.685Z,17.04
2019-06-08T09:48:09.194Z,17.09
2019-06-08T09:50:12.401Z,16.96
2019-06-08T09:52:18.131Z,16.93
2019-06-08T09:54:24.334Z,17.02
2019-06-08T09:56:28.234Z,16.91
2019-06-08T09:58:31.145Z,16.98
2019-06-08T10:00:33.976Z,17.12
2019-06-08T10:02:36.758Z,17.27
2019-06-08T10:04:39.627Z,17.33
2019-06-08T10:06:42.422Z,17.24
2019-06-08T10:08:45.849Z,17.37
2019-06-08T10:10:50.841Z,17.4
2019-06-08T10:12:54.538Z,17.37
2019-06-08T10:15:07.998Z,17.24
2019-06-08T10:17:11.014Z,17.24
2019-06-08T10:19:13.772Z,17.41
2019-06-08T10:21:18.225Z,17.41
2019-06-08T10:23:30.528Z,17.09
2019-06-08T10:25:38.492Z,17.09
2019-06-08T10:27:41.533Z,17.14
2019-06-08T10:29:44.423Z,17.08
2019-06-08T10:31:48.305Z,17.1
2019-06-08T10:33:51.265Z,17.16
2019-06-08T10:35:55.372Z,17.12
2019-06-08T10:38:06.911Z,17.27
2019-06-08T10:40:14.678Z,17.32
2019-06-08T10:42:17.953Z,17.23
2019-06-08T10:44:20.947Z,17.17
2019-06-08T10:46:23.772Z,17.05
2019-06-08T10:48:27.608Z,17.09
2019-06-08T10:50:30.529Z,17.17
2019-06-08T10:52:33.321Z,17.34
2019-06-08T10:54:37.807Z,17.35
2019-06-08T10:56:40.829Z,17.43
2019-06-08T10:58:43.645Z,17.54
2019-06-08T11:00:48.052Z,17.65
2019-06-08T11:02:50.942Z,17.7
2019-06-08T11:04:53.710Z,17.51
2019-06-08T11:06:59.172Z,17.47
2019-06-08T11:09:18.795Z,17.51
2019-06-08T11:11:22.222Z,17.56
2019-06-08T11:13:24.969Z,17.57
2019-06-08T11:15:30.525Z,17.53
2019-06-08T11:17:33.486Z,17.45
2019-06-08T11:19:37.634Z,17.59
2019-06-08T11:21:40.683Z,17.57
2019-06-08T11:23:43.520Z,17.46
2019-06-08T11:25:48.775Z,17.33
2019-06-08T11:27:51.693Z,17.34
2019-06-08T11:29:54.445Z,17.21
2019-06-08T11:32:00.072Z,17.3
2019-06-08T11:34:08.395Z,17.2
2019-06-08T11:36:14.817Z,17.34
2019-06-08T11:38:21.118Z,17.62
2019-06-08T11:40:23.937Z,17.75
2019-06-08T11:42:28.502Z,18.01
2019-06-08T11:44:31.527Z,18.01
2019-06-08T11:46:34.423Z,18.05
2019-06-08T11:48:40.902Z,17.86
2019-06-08T11:50:44.465Z,17.63
2019-06-08T11:52:49.275Z,17.51
2019-06-08T11:54:52.246Z,17.61
2019-06-08T11:56:57.371Z,17.57
2019-06-08T11:59:01.046Z,17.6
2019-06-08T12:01:05.435Z,17.66
2019-06-08T12:03:17.729Z,17.73
2019-06-08T12:05:20.456Z,17.76
2019-06-08T12:07:23.298Z,17.81
2019-06-08T12:09:28.497Z,17.79
2019-06-08T12:11:31.362Z,17.64
2019-06-08T12:13:34.156Z,17.7
2019-06-08T12:15:38.536Z,17.71
2019-06-08T12:17:41.502Z,17.6
2019-06-08T12:19:44.357Z,17.64
2019-06-08T12:21:49.484Z,17.74
2019-06-08T12:23:52.865Z,17.96
2019-06-08T12:25:55.926Z,18.15
2019-06-08T12:27:58.807Z,18.22
2019-06-08T12:30:08.020Z,18.22
2019-06-08T12:32:28.357Z,18.11
2019-06-08T12:34:31.212Z,18
2019-06-08T12:36:33.974Z,17.88
2019-06-08T12:38:38.006Z,17.9
2019-06-08T12:40:41.234Z,17.86
2019-06-08T12:42:44.632Z,17.68
2019-06-08T12:44:47.608Z,17.64
2019-06-08T12:46:50.465Z,17.55
2019-06-08T12:48:53.557Z,17.53
2019-06-08T12:50:56.316Z,17.65
2019-06-08T12:52:59.118Z,17.87
2019-06-08T12:55:06.550Z,17.98
2019-06-08T12:57:28.498Z,17.95
2019-06-08T12:59:31.632Z,17.91
2019-06-08T13:01:34.434Z,17.83
2019-06-08T13:03:37.823Z,17.65
2019-06-08T13:05:40.664Z,17.68
2019-06-08T13:07:43.483Z,17.66
2019-06-08T13:09:48.274Z,17.6
2019-06-08T13:11:51.325Z,17.48
2019-06-08T13:13:54.172Z,17.67
2019-06-08T13:15:58.012Z,17.97
2019-06-08T13:18:01.000Z,17.96
2019-06-08T13:20:03.873Z,17.96
2019-06-08T13:22:06.758Z,17.85
2019-06-08T13:24:10.144Z,17.86
2019-06-08T13:26:21.408Z,18
2019-06-08T13:28:33.574Z,18.13
2019-06-08T13:30:38.813Z,18.34
2019-06-08T13:32:41.861Z,18.42
2019-06-08T13:34:44.735Z,18.45
2019-06-08T13:36:52.734Z,18.41
2019-06-08T13:38:55.564Z,18.4
2019-06-08T13:40:58.748Z,18.39
2019-06-08T13:43:01.822Z,18.23
2019-06-08T13:45:04.697Z,18.17
2019-06-08T13:47:10.931Z,17.95
2019-06-08T13:49:19.415Z,17.8
2019-06-08T13:51:33.342Z,18.07
2019-06-08T13:53:38.293Z,18.22
2019-06-08T13:55:52.895Z,18.36
2019-06-08T13:57:59.514Z,18.5
2019-06-08T14:00:02.356Z,18.62
2019-06-08T14:02:05.243Z,18.78
2019-06-08T14:04:08.925Z,18.78
2019-06-08T14:06:11.862Z,18.84
2019-06-08T14:08:14.647Z,18.7
2019-06-08T14:10:21.226Z,18.79
2019-06-08T14:12:30.349Z,18.81
2019-06-08T14:14:33.921Z,18.59
2019-06-08T14:16:38.864Z,18.57
2019-06-08T14:18:41.884Z,18.55
2019-06-08T14:20:44.781Z,18.41
2019-06-08T14:22:50.121Z,18.47
2019-06-08T14:24:53.316Z,18.51
2019-06-08T14:26:58.249Z,18.36
2019-06-08T14:29:01.709Z,18.28
2019-06-08T14:31:04.747Z,18.45
2019-06-08T14:33:08.220Z,18.54
2019-06-08T14:35:11.167Z,18.63
2019-06-08T14:37:14.011Z,18.61
2019-06-08T14:39:18.734Z,18.44
2019-06-08T14:41:26.989Z,18.41
2019-06-08T14:43:34.229Z,18.67
2019-06-08T14:45:37.754Z,18.85
2019-06-08T14:47:40.794Z,19.22
2019-06-08T14:49:43.705Z,19.6
2019-06-08T14:51:47.759Z,18.95
2019-06-08T14:53:51.470Z,18.83
2019-06-08T14:56:05.469Z,19.06
2019-06-08T14:58:11.851Z,18.99
2019-06-08T15:00:14.655Z,18.85
2019-06-08T15:02:18.106Z,18.97
2019-06-08T15:04:28.277Z,19.03
2019-06-08T15:06:42.711Z,19
2019-06-08T15:08:49.862Z,19.06
2019-06-08T15:10:53.110Z,19
2019-06-08T15:12:57.728Z,18.92
2019-06-08T15:15:00.718Z,18.85
2019-06-08T15:17:03.641Z,18.71
2019-06-08T15:19:08.101Z,18.68
2019-06-08T15:21:10.976Z,18.64
2019-06-08T15:23:16.764Z,18.59
2019-06-08T15:25:27.173Z,18.53
2019-06-08T15:27:35.462Z,18.41
2019-06-08T15:29:38.211Z,18.41
2019-06-08T15:31:40.991Z,18.44
2019-06-08T15:33:43.805Z,18.48
2019-06-08T15:35:47.516Z,18.51
2019-06-08T15:37:50.598Z,18.52
2019-06-08T15:39:53.409Z,18.58
2019-06-08T15:41:59.714Z,18.64
2019-06-08T15:44:03.037Z,18.65
2019-06-08T15:46:08.292Z,18.71
2019-06-08T15:48:11.421Z,18.66
2019-06-08T15:50:14.171Z,18.56
2019-06-08T15:52:17.505Z,18.53
2019-06-08T15:54:20.461Z,18.61
2019-06-08T15:56:35.449Z,18.59
2019-06-08T15:58:54.645Z,18.57
2019-06-08T16:00:57.439Z,18.52
2019-06-08T16:03:00.201Z,18.48
2019-06-08T16:05:02.992Z,18.45
2019-06-08T16:07:05.867Z,18.42
2019-06-08T16:09:08.804Z,18.42
2019-06-08T16:11:11.677Z,18.44
2019-06-08T16:13:14.485Z,18.43
2019-06-08T16:15:17.350Z,18.49
2019-06-08T16:17:20.106Z,18.64
2019-06-08T16:19:22.886Z,18.63
2019-06-08T16:21:25.615Z,18.58
2019-06-08T16:23:29.766Z,18.49
2019-06-08T16:25:35.569Z,18.45
2019-06-08T16:27:41.600Z,18.46
2019-06-08T16:29:44.398Z,18.51
2019-06-08T16:31:47.233Z,18.6
2019-06-08T16:33:50.015Z,18.61
2019-06-08T16:35:53.279Z,18.47
2019-06-08T16:37:56.188Z,18.45
2019-06-08T16:39:59.020Z,18.39
2019-06-08T16:42:02.024Z,18.3
2019-06-08T16:44:07.072Z,18.26
2019-06-08T16:46:10.182Z,18.29
2019-06-08T16:48:12.993Z,18.31
2019-06-08T16:50:24.334Z,18.24
2019-06-08T16:52:28.417Z,18.25
2019-06-08T16:54:32.704Z,18.21
2019-06-08T16:56:36.340Z,18.11
2019-06-08T16:58:39.521Z,18.08
2019-06-08T17:00:42.511Z,18.03
2019-06-08T17:02:45.306Z,17.97
2019-06-08T17:04:48.138Z,17.9
2019-06-08T17:06:50.939Z,17.82
2019-06-08T17:08:53.711Z,17.72
2019-06-08T17:10:56.524Z,17.64
2019-06-08T17:12:59.346Z,17.53
2019-06-08T17:15:02.163Z,17.27
2019-06-08T17:17:05.038Z,16.99
2019-06-08T17:19:07.922Z,16.9
2019-06-08T17:21:10.733Z,16.74
2019-06-08T17:23:13.614Z,16.68
2019-06-08T17:25:16.380Z,16.64
2019-06-08T17:27:26.591Z,16.59
2019-06-08T17:29:30.701Z,16.56
2019-06-08T17:31:35.115Z,16.47
2019-06-08T17:33:39.682Z,16.5
2019-06-08T17:35:43.809Z,16.59
2019-06-08T17:37:46.714Z,16.67
2019-06-08T17:39:49.583Z,16.75
2019-06-08T17:41:52.307Z,16.75
2019-06-08T17:43:55.028Z,16.83
2019-06-08T17:45:57.889Z,16.87
2019-06-08T17:48:00.939Z,16.87
2019-06-08T17:50:03.746Z,16.85
2019-06-08T17:52:06.548Z,16.89
2019-06-08T17:54:09.308Z,16.94
2019-06-08T17:56:12.150Z,16.87
2019-06-08T17:58:15.005Z,16.89
2019-06-08T18:00:17.895Z,16.83
2019-06-08T18:02:27.925Z,16.77
2019-06-08T18:04:35.449Z,16.68
2019-06-08T18:06:44.598Z,16.65
2019-06-08T18:08:50.075Z,16.64
2019-06-08T18:10:52.920Z,16.61
2019-06-08T18:12:58.158Z,16.56
2019-06-08T18:15:01.691Z,16.64
2019-06-08T18:17:04.567Z,16.64
2019-06-08T18:19:08.026Z,16.53
2019-06-08T18:21:11.066Z,16.55
2019-06-08T18:23:13.910Z,16.49
2019-06-08T18:25:17.321Z,16.42
2019-06-08T18:27:20.323Z,16.47
2019-06-08T18:29:23.048Z,16.46
2019-06-08T18:31:27.596Z,16.46
2019-06-08T18:33:30.478Z,16.5
2019-06-08T18:35:34.611Z,16.43
2019-06-08T18:37:46.020Z,16.44
2019-06-08T18:39:51.411Z,16.35
2019-06-08T18:41:54.204Z,16.32
2019-06-08T18:43:58.308Z,16.36
2019-06-08T18:46:01.272Z,16.3
2019-06-08T18:48:04.013Z,16.36
2019-06-08T18:50:08.778Z,16.36
2019-06-08T18:52:11.806Z,16.33
2019-06-08T18:54:17.902Z,16.35
2019-06-08T18:56:21.607Z,16.35
2019-06-08T18:58:25.173Z,16.34
2019-06-08T19:00:30.545Z,16.38
2019-06-08T19:02:33.519Z,16.41
2019-06-08T19:04:37.769Z,16.39
2019-06-08T19:06:45.385Z,16.33
2019-06-08T19:08:49.648Z,16.35
2019-06-08T19:10:53.681Z,16.34
2019-06-08T19:12:56.519Z,16.28
2019-06-08T19:14:59.391Z,16.24
2019-06-08T19:17:02.817Z,16.3
2019-06-08T19:19:07.393Z,16.26
2019-06-08T19:21:10.580Z,16.24
2019-06-08T19:23:13.510Z,16.24
2019-06-08T19:25:17.555Z,16.23
2019-06-08T19:27:20.578Z,16.14
2019-06-08T19:29:23.400Z,16.21
2019-06-08T19:31:27.603Z,16.21
2019-06-08T19:33:30.601Z,16.16
2019-06-08T19:35:34.764Z,16.11
2019-06-08T19:37:37.743Z,16.09
2019-06-08T19:39:43.150Z,16.08
2019-06-08T19:41:51.663Z,16.03
2019-06-08T19:43:54.944Z,16
2019-06-08T19:46:00.748Z,15.95
2019-06-08T19:48:03.475Z,15.91
2019-06-08T19:50:07.778Z,15.93
2019-06-08T19:52:10.785Z,15.94
2019-06-08T19:54:13.776Z,15.86
2019-06-08T19:56:17.451Z,15.78
2019-06-08T19:58:25.238Z,15.77
2019-06-08T20:00:30.625Z,15.73
2019-06-08T20:02:33.360Z,15.7
2019-06-08T20:04:38.439Z,15.68
2019-06-08T20:06:41.352Z,15.64
2019-06-08T20:08:45.392Z,15.62
2019-06-08T20:10:53.808Z,15.53
2019-06-08T20:12:57.505Z,15.51
2019-06-08T20:15:00.797Z,15.57
2019-06-08T20:17:03.774Z,15.63
2019-06-08T20:19:08.043Z,15.5
2019-06-08T20:21:10.988Z,15.41
2019-06-08T20:23:14.071Z,15.43
2019-06-08T20:25:17.360Z,15.39
2019-06-08T20:27:21.013Z,15.36
2019-06-08T20:29:23.925Z,15.37
2019-06-08T20:31:27.301Z,15.26
2019-06-08T20:33:30.165Z,15.18
2019-06-08T20:35:32.894Z,15.16
2019-06-08T20:37:37.619Z,15.13
2019-06-08T20:39:53.540Z,15.04
2019-06-08T20:42:17.306Z,15
2019-06-08T20:44:20.244Z,15.04
2019-06-08T20:46:23.038Z,14.95
2019-06-08T20:48:27.492Z,14.88
2019-06-08T20:50:30.491Z,14.8
2019-06-08T20:52:33.296Z,14.79
2019-06-08T20:54:36.862Z,14.76
2019-06-08T20:56:39.781Z,14.77
2019-06-08T20:58:43.183Z,14.71
2019-06-08T21:00:48.136Z,14.71
2019-06-08T21:03:01.708Z,14.75
2019-06-08T21:05:07.794Z,14.69
2019-06-08T21:07:10.779Z,14.74
2019-06-08T21:09:13.585Z,14.64
2019-06-08T21:11:17.584Z,14.61
2019-06-08T21:13:20.482Z,14.53
2019-06-08T21:15:23.369Z,14.54
2019-06-08T21:17:27.511Z,14.52
2019-06-08T21:19:30.488Z,14.51
2019-06-08T21:21:33.338Z,14.54
2019-06-08T21:23:36.094Z,14.46
2019-06-08T21:25:39.034Z,14.4
2019-06-08T21:27:41.868Z,14.41
2019-06-08T21:29:50.078Z,14.42
2019-06-08T21:32:21.800Z,14.36
2019-06-08T21:34:24.607Z,14.3
2019-06-08T21:36:27.396Z,14.26
2019-06-08T21:38:30.121Z,14.24
2019-06-08T21:40:32.868Z,14.26
2019-06-08T21:42:37.061Z,14.36
2019-06-08T21:44:39.929Z,14.32
2019-06-08T21:46:42.647Z,14.25
2019-06-08T21:48:47.398Z,14.28
2019-06-08T21:50:53.167Z,14.25
2019-06-08T21:53:01.536Z,14.23
2019-06-08T21:55:04.281Z,14.22
2019-06-08T21:57:09.519Z,14.21
2019-06-08T21:59:12.426Z,14.18
2019-06-08T22:01:15.183Z,14.16
2019-06-08T22:03:17.895Z,14.13
2019-06-08T22:05:20.654Z,14.15
2019-06-08T22:07:23.434Z,14.07
2019-06-08T22:09:28.347Z,14.01
2019-06-08T22:11:31.266Z,14
2019-06-08T22:13:34.069Z,13.96
2019-06-08T22:15:37.865Z,13.95
2019-06-08T22:17:40.902Z,13.89
2019-06-08T22:19:43.726Z,13.97
2019-06-08T22:21:47.982Z,13.99
2019-06-08T22:23:51.884Z,13.96
2019-06-08T22:25:58.220Z,13.97
2019-06-08T22:28:03.957Z,13.95
2019-06-08T22:30:14.171Z,13.97
2019-06-08T22:32:47.350Z,13.94
2019-06-08T22:34:51.414Z,13.81
2019-06-08T22:36:58.208Z,13.75
2019-06-08T22:39:03.790Z,13.79
2019-06-08T22:41:08.003Z,13.83
2019-06-08T22:43:11.077Z,13.78
2019-06-08T22:45:13.875Z,13.77
2019-06-08T22:47:18.533Z,13.79
2019-06-08T22:49:21.398Z,13.77
2019-06-08T22:51:24.237Z,13.77
2019-06-08T22:53:27.695Z,13.75
2019-06-08T22:55:30.610Z,13.72
2019-06-08T22:57:33.433Z,13.75
2019-06-08T22:59:37.151Z,13.7
2019-06-08T23:01:40.004Z,13.61
2019-06-08T23:03:42.844Z,13.61
2019-06-08T23:05:47.535Z,13.64
2019-06-08T23:07:50.552Z,13.59
2019-06-08T23:09:54.958Z,13.57
2019-06-08T23:12:09.283Z,13.56
2019-06-08T23:14:13.322Z,13.52
2019-06-08T23:16:18.146Z,13.45
2019-06-08T23:18:21.026Z,13.5
2019-06-08T23:20:23.765Z,13.43
2019-06-08T23:22:27.333Z,13.46
2019-06-08T23:24:30.223Z,13.44
2019-06-08T23:26:33.078Z,13.46
2019-06-08T23:28:37.671Z,13.46
2019-06-08T23:30:40.700Z,13.42
2019-06-08T23:32:43.420Z,13.45
2019-06-08T23:34:47.768Z,13.42
2019-06-08T23:36:57.778Z,13.44
2019-06-08T23:39:08.877Z,13.4
2019-06-08T23:41:11.583Z,13.31
2019-06-08T23:43:14.332Z,13.28
2019-06-08T23:45:17.630Z,13.3
2019-06-08T23:47:20.496Z,13.34
2019-06-08T23:49:23.256Z,13.35
2019-06-08T23:51:27.501Z,13.34
2019-06-08T23:53:30.364Z,13.28
2019-06-08T23:55:33.114Z,13.29
2019-06-08T23:57:37.638Z,13.28
2019-06-08T23:59:40.793Z,13.29
